createdAt,value
2022-10-06T00:00:50.163Z,98011.09
2022-10-06T00:03:17.388Z,98010.97
2022-10-06T00:05:44.321Z,98005.34
2022-10-06T00:08:27.227Z,98019.16
2022-10-06T00:10:56.896Z,98028.00
2022-10-06T00:13:24.732Z,98038.94
2022-10-06T00:15:51.494Z,98034.75
2022-10-06T00:18:18.485Z,98040.84
2022-10-06T00:20:45.416Z,98032.44
2022-10-06T00:23:12.092Z,98035.22
2022-10-06T00:25:38.861Z,98029.56
2022-10-06T00:28:05.555Z,98028.84
2022-10-06T00:30:32.308Z,98037.72
2022-10-06T00:33:01.382Z,98035.53
2022-10-06T00:35:33.619Z,98038.91
2022-10-06T00:38:01.598Z,98040.19
2022-10-06T00:40:28.743Z,98030.47
2022-10-06T00:43:01.706Z,98045.59
2022-10-06T00:45:44.403Z,98040.09
2022-10-06T00:48:19.406Z,98042.72
2022-10-06T00:50:46.886Z,98044.78
2022-10-06T00:53:14.762Z,98046.06
2022-10-06T00:55:41.515Z,98046.06
2022-10-06T00:58:08.327Z,98041.28
2022-10-06T01:00:35.195Z,98040.56
2022-10-06T01:03:10.000Z,98041.28
2022-10-06T01:05:41.612Z,98031.56
2022-10-06T01:08:08.867Z,98040.56
2022-10-06T01:10:35.675Z,98042.00
2022-10-06T01:13:02.498Z,98040.56
2022-10-06T01:15:29.448Z,98046.81
2022-10-06T01:18:01.167Z,98047.41
2022-10-06T01:20:29.984Z,98043.31
2022-10-06T01:23:05.908Z,98057.13
2022-10-06T01:25:36.426Z,98057.72
2022-10-06T01:28:05.989Z,98061.91
2022-10-06T01:31:01.651Z,98064.09
2022-10-06T01:33:30.767Z,98067.56
2022-10-06T01:35:57.804Z,98063.38
2022-10-06T01:38:24.580Z,98068.75
2022-10-06T01:40:56.958Z,98071.53
2022-10-06T01:43:23.815Z,98070.19
2022-10-06T01:45:57.870Z,98070.09
2022-10-06T01:48:25.656Z,98078.47
2022-10-06T01:50:54.347Z,98079.81
2022-10-06T01:53:21.620Z,98081.13
2022-10-06T01:55:48.566Z,98083.28
2022-10-06T01:58:20.030Z,98083.88
2022-10-06T02:00:46.980Z,98098.41
2022-10-06T02:03:14.151Z,98090.13
2022-10-06T02:05:41.925Z,98101.78
2022-10-06T02:08:09.788Z,98097.69
2022-10-06T02:10:36.855Z,98102.50
2022-10-06T02:13:07.786Z,98100.44
2022-10-06T02:15:35.940Z,98102.50
2022-10-06T02:18:02.779Z,98110.16
2022-10-06T02:20:29.499Z,98105.97
2022-10-06T02:22:56.177Z,98110.16
2022-10-06T02:25:23.312Z,98112.94
2022-10-06T02:27:50.743Z,98116.41
2022-10-06T02:30:17.697Z,98116.41
2022-10-06T02:32:46.107Z,98124.09
2022-10-06T02:35:13.266Z,98134.41
2022-10-06T02:37:41.631Z,98128.31
2022-10-06T02:40:10.819Z,98135.25
2022-10-06T02:42:37.999Z,98140.06
2022-10-06T02:45:07.050Z,98152.56
2022-10-06T02:47:35.652Z,98153.28
2022-10-06T02:50:05.355Z,98156.03
2022-10-06T02:52:36.799Z,98152.56
2022-10-06T02:55:06.305Z,98156.75
2022-10-06T02:57:33.104Z,98171.28
2022-10-06T03:00:00.438Z,98163.72
2022-10-06T03:02:32.676Z,98171.28
2022-10-06T03:04:59.820Z,98178.97
2022-10-06T03:07:27.460Z,98172.72
2022-10-06T03:09:54.505Z,98173.47
2022-10-06T03:12:23.458Z,98177.66
2022-10-06T03:14:50.169Z,98179.09
2022-10-06T03:17:25.139Z,98182.47
2022-10-06T03:19:58.041Z,98182.00
2022-10-06T03:22:25.658Z,98184.03
2022-10-06T03:24:55.012Z,98197.09
2022-10-06T03:27:22.119Z,98199.28
2022-10-06T03:29:51.593Z,98204.22
2022-10-06T03:32:20.353Z,98201.47
2022-10-06T03:34:47.726Z,98204.22
2022-10-06T03:37:15.739Z,98209.16
2022-10-06T03:39:43.663Z,98209.75
2022-10-06T03:42:11.017Z,98218.75
2022-10-06T03:44:37.979Z,98222.25
2022-10-06T03:47:05.276Z,98228.47
2022-10-06T03:49:33.007Z,98229.94
2022-10-06T03:51:59.827Z,98228.59
2022-10-06T03:54:30.912Z,98225.84
2022-10-06T03:56:57.911Z,98232.09
2022-10-06T03:59:24.704Z,98236.88
2022-10-06T04:01:53.127Z,98236.16
2022-10-06T04:04:26.771Z,98245.16
2022-10-06T04:06:59.099Z,98241.69
2022-10-06T04:09:26.131Z,98243.72
2022-10-06T04:11:52.842Z,98245.91
2022-10-06T04:14:20.500Z,98252.88
2022-10-06T04:16:49.536Z,98258.84
2022-10-06T04:19:24.881Z,98264.50
2022-10-06T04:21:54.260Z,98272.78
2022-10-06T04:24:23.550Z,98273.25
2022-10-06T04:26:52.405Z,98288.50
2022-10-06T04:29:20.584Z,98290.56
2022-10-06T04:31:52.057Z,98287.50
2022-10-06T04:34:34.570Z,98287.50
2022-10-06T04:37:01.372Z,98288.97
2022-10-06T04:39:28.080Z,98291.16
2022-10-06T04:41:55.144Z,98287.06
2022-10-06T04:44:25.979Z,98284.31
2022-10-06T04:46:54.955Z,98290.66
2022-10-06T04:49:21.703Z,98286.47
2022-10-06T04:51:54.464Z,98296.91
2022-10-06T04:54:21.955Z,98303.16
2022-10-06T04:56:54.010Z,98308.69
2022-10-06T04:59:43.523Z,98311.44
2022-10-06T05:02:11.940Z,98311.44
2022-10-06T05:04:39.153Z,98310.72
2022-10-06T05:07:06.801Z,98305.19
2022-10-06T05:09:33.799Z,98313.47
2022-10-06T05:12:01.891Z,98302.44
2022-10-06T05:14:28.664Z,98303.16
2022-10-06T05:16:56.186Z,98303.16
2022-10-06T05:19:22.956Z,98316.97
2022-10-06T05:21:49.808Z,98309.44
2022-10-06T05:24:20.866Z,98316.84
2022-10-06T05:26:49.347Z,98317.88
2022-10-06T05:29:16.667Z,98322.88
2022-10-06T05:31:44.991Z,98320.59
2022-10-06T05:34:13.647Z,98327.16
2022-10-06T05:36:40.669Z,98321.69
2022-10-06T05:39:10.484Z,98324.19
2022-10-06T05:41:43.334Z,98319.97
2022-10-06T05:44:11.483Z,98325.81
2022-10-06T05:46:40.179Z,98324.69
2022-10-06T05:49:10.269Z,98324.56
2022-10-06T05:51:40.514Z,98337.47
2022-10-06T05:54:27.659Z,98341.66
2022-10-06T05:56:54.822Z,98344.19
2022-10-06T05:59:22.382Z,98343.28
2022-10-06T06:01:49.751Z,98345.94
2022-10-06T06:04:32.369Z,98343.88
2022-10-06T06:07:00.286Z,98343.75
2022-10-06T06:09:28.868Z,98350.56
2022-10-06T06:12:00.206Z,98353.31
2022-10-06T06:15:14.784Z,98365.22
2022-10-06T06:17:55.024Z,98368.56
2022-10-06T06:20:22.166Z,98380.19
2022-10-06T06:22:52.694Z,98374.06
2022-10-06T06:25:21.576Z,98381.31
2022-10-06T06:27:48.363Z,98375.25
2022-10-06T06:30:16.894Z,98389.59
2022-10-06T06:32:43.797Z,98385.69
2022-10-06T06:35:10.999Z,98394.56
2022-10-06T06:37:37.900Z,98394.56
2022-10-06T06:40:05.843Z,98395.56
2022-10-06T06:42:36.459Z,98406.31
2022-10-06T06:45:32.536Z,98405.13
2022-10-06T06:48:17.373Z,98402.66
2022-10-06T06:50:55.704Z,98407.13
2022-10-06T06:53:22.439Z,98401.31
2022-10-06T06:55:50.921Z,98411.31
2022-10-06T06:58:20.515Z,98416.50
2022-10-06T07:00:48.238Z,98420.56
2022-10-06T07:03:32.802Z,98415.16
2022-10-06T07:06:11.432Z,98422.13
2022-10-06T07:08:44.162Z,98423.72
2022-10-06T07:11:16.647Z,98424.56
2022-10-06T07:13:45.106Z,98429.66
2022-10-06T07:16:35.315Z,98428.03
2022-10-06T07:19:24.845Z,98431.50
2022-10-06T07:22:19.702Z,98427.41
2022-10-06T07:25:05.592Z,98436.56
2022-10-06T07:27:45.397Z,98438.41
2022-10-06T07:30:23.044Z,98445.53
2022-10-06T07:32:55.700Z,98443.63
2022-10-06T07:35:25.116Z,98454.09
2022-10-06T07:37:55.474Z,98453.09
2022-10-06T07:40:24.297Z,98456.44
2022-10-06T07:42:54.301Z,98451.50
2022-10-06T07:45:38.725Z,98454.97
2022-10-06T07:48:15.350Z,98457.56
2022-10-06T07:50:44.171Z,98451.25
2022-10-06T07:53:12.514Z,98454.03
2022-10-06T07:55:46.691Z,98465.16
2022-10-06T07:58:35.529Z,98463.91
2022-10-06T08:01:07.091Z,98462.16
2022-10-06T08:03:34.603Z,98472.94
2022-10-06T08:06:02.067Z,98467.28
2022-10-06T08:08:37.008Z,98467.41
2022-10-06T08:11:04.895Z,98477.63
2022-10-06T08:13:34.837Z,98477.63
2022-10-06T08:16:10.583Z,98464.97
2022-10-06T08:18:46.884Z,98468.78
2022-10-06T08:21:16.494Z,98475.47
2022-10-06T08:23:44.194Z,98468.84
2022-10-06T08:26:12.448Z,98477.13
2022-10-06T08:28:39.974Z,98480.16
2022-10-06T08:31:11.597Z,98490.59
2022-10-06T08:33:39.718Z,98483.84
2022-10-06T08:36:08.684Z,98485.59
2022-10-06T08:38:37.169Z,98487.75
2022-10-06T08:41:23.936Z,98487.44
2022-10-06T08:44:04.303Z,98496.72
2022-10-06T08:46:46.595Z,98501.41
2022-10-06T08:49:21.975Z,98504.19
2022-10-06T08:51:57.457Z,98502.91
2022-10-06T08:54:49.395Z,98507.47
2022-10-06T08:57:20.145Z,98510.94
2022-10-06T08:59:48.873Z,98510.53
2022-10-06T09:02:41.832Z,98513.44
2022-10-06T09:05:09.386Z,98510.84
2022-10-06T09:08:04.031Z,98526.59
2022-10-06T09:10:52.505Z,98522.69
2022-10-06T09:13:27.097Z,98514.56
2022-10-06T09:15:56.145Z,98520.22
2022-10-06T09:18:49.404Z,98524.84
2022-10-06T09:21:21.628Z,98523.50
2022-10-06T09:23:54.044Z,98518.28
2022-10-06T09:26:23.079Z,98525.47
2022-10-06T09:28:50.622Z,98522.09
2022-10-06T09:31:34.395Z,98525.53
2022-10-06T09:34:27.456Z,98527.69
2022-10-06T09:37:02.809Z,98529.53
2022-10-06T09:39:36.608Z,98529.25
2022-10-06T09:42:22.891Z,98536.50
2022-10-06T09:45:02.083Z,98537.88
2022-10-06T09:47:28.920Z,98530.72
2022-10-06T09:50:21.643Z,98541.00
2022-10-06T09:53:00.797Z,98535.34
2022-10-06T09:55:37.740Z,98536.19
2022-10-06T09:58:18.828Z,98533.69
2022-10-06T10:00:48.037Z,98531.38
2022-10-06T10:03:16.022Z,98529.94
2022-10-06T10:06:02.302Z,98531.72
2022-10-06T10:08:32.372Z,98531.91
2022-10-06T10:11:39.527Z,98533.84
2022-10-06T10:14:16.771Z,98530.25
2022-10-06T10:17:09.324Z,98524.50
2022-10-06T10:19:42.907Z,98526.09
2022-10-06T10:22:23.271Z,98531.16
2022-10-06T10:25:02.215Z,98524.44
2022-10-06T10:28:24.940Z,98524.59
2022-10-06T10:31:04.007Z,98530.25
2022-10-06T10:33:59.219Z,98532.81
2022-10-06T10:36:38.368Z,98529.31
2022-10-06T10:39:07.566Z,98529.28
2022-10-06T10:41:44.879Z,98537.44
2022-10-06T10:44:26.626Z,98534.16
2022-10-06T10:47:05.543Z,98533.16
2022-10-06T10:49:33.627Z,98533.34
2022-10-06T10:52:16.218Z,98532.75
2022-10-06T10:55:31.649Z,98529.59
2022-10-06T10:58:12.047Z,98531.09
2022-10-06T11:00:42.020Z,98535.13
2022-10-06T11:03:09.760Z,98529.03
2022-10-06T11:05:38.911Z,98532.78
2022-10-06T11:08:49.748Z,98531.94
2022-10-06T11:11:26.957Z,98533.66
2022-10-06T11:13:56.744Z,98532.34
2022-10-06T11:16:42.821Z,98522.47
2022-10-06T11:19:47.744Z,98525.38
2022-10-06T11:22:32.433Z,98535.13
2022-10-06T11:25:42.045Z,98528.63
2022-10-06T11:28:08.748Z,98528.63
2022-10-06T11:31:02.429Z,98527.53
2022-10-06T11:33:47.567Z,98526.22
2022-10-06T11:36:30.514Z,98528.75
2022-10-06T11:39:10.900Z,98531.19
2022-10-06T11:41:38.727Z,98532.88
2022-10-06T11:44:14.789Z,98519.47
2022-10-06T11:46:50.080Z,98523.72
2022-10-06T11:49:28.948Z,98516.38
2022-10-06T11:51:59.601Z,98521.44
2022-10-06T11:54:45.931Z,98525.13
2022-10-06T11:57:30.902Z,98515.84
2022-10-06T12:00:04.134Z,98510.53
2022-10-06T12:02:33.735Z,98509.84
2022-10-06T12:05:28.441Z,98505.69
2022-10-06T12:07:56.138Z,98506.44
2022-10-06T12:10:28.792Z,98504.66
2022-10-06T12:13:53.254Z,98507.66
2022-10-06T12:17:11.519Z,98509.13
2022-10-06T12:20:00.109Z,98496.50
2022-10-06T12:22:31.319Z,98505.28
2022-10-06T12:25:13.520Z,98496.50
2022-10-06T12:28:10.832Z,98500.56
2022-10-06T12:31:18.341Z,98501.19
2022-10-06T12:33:45.730Z,98493.63
2022-10-06T12:36:19.317Z,98498.50
2022-10-06T12:39:22.157Z,98491.50
2022-10-06T12:42:01.693Z,98485.81
2022-10-06T12:44:35.676Z,98483.31
2022-10-06T12:47:07.099Z,98485.97
2022-10-06T12:49:48.804Z,98475.38
2022-10-06T12:52:21.155Z,98485.63
2022-10-06T12:55:27.660Z,98480.56
2022-10-06T12:57:54.846Z,98476.44
2022-10-06T13:00:31.485Z,98468.25
2022-10-06T13:02:58.527Z,98473.22
2022-10-06T13:05:25.337Z,98469.72
2022-10-06T13:08:00.398Z,98468.16
2022-10-06T13:10:29.453Z,98463.31
2022-10-06T13:12:58.051Z,98465.25
2022-10-06T13:15:25.336Z,98463.19
2022-10-06T13:17:54.724Z,98467.19
2022-10-06T13:20:36.435Z,98467.66
2022-10-06T13:23:24.743Z,98460.78
2022-10-06T13:26:02.496Z,98465.22
2022-10-06T13:28:45.979Z,98456.72
2022-10-06T13:31:20.127Z,98453.44
2022-10-06T13:33:50.423Z,98452.84
2022-10-06T13:36:17.554Z,98448.75
2022-10-06T13:38:44.248Z,98457.06
2022-10-06T13:41:14.287Z,98451.03
2022-10-06T13:43:59.431Z,98453.94
2022-10-06T13:46:28.769Z,98456.47
2022-10-06T13:49:03.416Z,98448.50
2022-10-06T13:51:32.379Z,98444.66
2022-10-06T13:54:01.278Z,98442.25
2022-10-06T13:56:34.777Z,98445.03
2022-10-06T13:59:18.913Z,98441.75
2022-10-06T14:01:45.811Z,98443.44
2022-10-06T14:04:20.415Z,98441.63
2022-10-06T14:06:55.894Z,98441.97
2022-10-06T14:09:25.689Z,98433.78
2022-10-06T14:11:54.118Z,98428.50
2022-10-06T14:14:21.030Z,98430.75
2022-10-06T14:16:50.071Z,98429.56
2022-10-06T14:19:30.356Z,98424.44
2022-10-06T14:21:57.056Z,98429.50
2022-10-06T14:24:28.732Z,98429.75
2022-10-06T14:27:01.296Z,98429.22
2022-10-06T14:29:27.971Z,98434.94
2022-10-06T14:31:54.853Z,98431.56
2022-10-06T14:34:22.273Z,98423.50
2022-10-06T14:36:55.110Z,98428.50
2022-10-06T14:39:22.252Z,98427.19
2022-10-06T14:41:48.931Z,98422.00
2022-10-06T14:44:16.141Z,98419.00
2022-10-06T14:46:47.079Z,98414.56
2022-10-06T14:49:14.035Z,98428.28
2022-10-06T14:51:43.461Z,98416.34
2022-10-06T14:54:10.927Z,98412.97
2022-10-06T14:56:39.051Z,98414.41
2022-10-06T14:59:08.601Z,98408.66
2022-10-06T15:01:37.698Z,98411.06
2022-10-06T15:04:09.167Z,98406.47
2022-10-06T15:06:54.572Z,98407.06
2022-10-06T15:09:21.387Z,98400.66
2022-10-06T15:11:48.017Z,98404.16
2022-10-06T15:14:15.379Z,98396.31
2022-10-06T15:16:44.908Z,98393.34
2022-10-06T15:19:12.835Z,98394.88
2022-10-06T15:21:41.547Z,98399.97
2022-10-06T15:24:12.428Z,98398.31
2022-10-06T15:26:58.236Z,98392.38
2022-10-06T15:29:25.251Z,98390.22
2022-10-06T15:31:55.210Z,98387.59
2022-10-06T15:34:24.143Z,98393.38
2022-10-06T15:36:52.441Z,98395.06
2022-10-06T15:39:21.131Z,98381.94
2022-10-06T15:41:48.571Z,98388.19
2022-10-06T15:44:16.677Z,98384.69
2022-10-06T15:46:45.234Z,98385.19
2022-10-06T15:49:26.496Z,98378.09
2022-10-06T15:51:59.377Z,98381.66
2022-10-06T15:54:28.416Z,98376.97
2022-10-06T15:56:59.403Z,98378.19
2022-10-06T15:59:27.556Z,98372.88
2022-10-06T16:02:04.030Z,98373.13
2022-10-06T16:04:40.010Z,98369.28
2022-10-06T16:07:11.010Z,98370.34
2022-10-06T16:09:42.975Z,98373.94
2022-10-06T16:12:12.924Z,98372.94
2022-10-06T16:14:39.589Z,98362.22
2022-10-06T16:17:07.245Z,98365.16
2022-10-06T16:19:37.059Z,98367.09
2022-10-06T16:22:05.639Z,98371.88
2022-10-06T16:24:32.693Z,98374.06
2022-10-06T16:27:00.250Z,98366.22
2022-10-06T16:29:27.814Z,98368.25
2022-10-06T16:31:54.673Z,98370.19
2022-10-06T16:34:21.446Z,98366.44
2022-10-06T16:36:48.195Z,98369.66
2022-10-06T16:39:23.729Z,98366.63
2022-10-06T16:41:51.222Z,98370.00
2022-10-06T16:44:18.222Z,98377.47
2022-10-06T16:46:45.401Z,98368.28
2022-10-06T16:49:12.473Z,98368.19
2022-10-06T16:51:41.059Z,98369.56
2022-10-06T16:54:10.410Z,98369.63
2022-10-06T16:56:39.579Z,98372.13
2022-10-06T16:59:12.262Z,98371.41
2022-10-06T17:01:39.696Z,98374.06
2022-10-06T17:04:10.382Z,98376.09
2022-10-06T17:06:41.599Z,98378.00
2022-10-06T17:09:13.919Z,98374.25
2022-10-06T17:11:42.164Z,98378.78
2022-10-06T17:14:08.915Z,98372.72
2022-10-06T17:16:38.022Z,98380.75
2022-10-06T17:19:05.352Z,98384.22
2022-10-06T17:21:45.560Z,98383.09
2022-10-06T17:24:15.171Z,98391.13
2022-10-06T17:26:44.184Z,98393.31
2022-10-06T17:29:14.932Z,98389.22
2022-10-06T17:31:43.507Z,98389.94
2022-10-06T17:34:20.071Z,98380.94
2022-10-06T17:36:50.186Z,98395.88
2022-10-06T17:39:19.139Z,98392.00
2022-10-06T17:41:47.806Z,98398.84
2022-10-06T17:44:22.965Z,98393.72
2022-10-06T17:46:52.910Z,98384.69
2022-10-06T17:49:20.943Z,98390.75
2022-10-06T17:51:48.560Z,98391.84
2022-10-06T17:54:19.292Z,98389.53
2022-10-06T17:56:48.117Z,98389.19
2022-10-06T17:59:17.711Z,98391.63
2022-10-06T18:01:45.433Z,98394.06
2022-10-06T18:04:16.190Z,98394.91
2022-10-06T18:06:44.268Z,98395.16
2022-10-06T18:09:11.459Z,98390.47
2022-10-06T18:11:39.825Z,98392.06
2022-10-06T18:14:17.757Z,98393.50
2022-10-06T18:16:46.917Z,98384.75
2022-10-06T18:19:17.261Z,98395.88
2022-10-06T18:21:45.297Z,98389.34
2022-10-06T18:24:18.075Z,98388.63
2022-10-06T18:26:49.417Z,98385.75
2022-10-06T18:29:17.849Z,98381.06
2022-10-06T18:31:45.107Z,98381.78
2022-10-06T18:36:59.255Z,98383.38
2022-10-06T18:39:26.088Z,98387.56
2022-10-06T18:41:53.401Z,98389.00
2022-10-06T18:44:40.059Z,98384.81
2022-10-06T18:47:25.527Z,98381.44
2022-10-06T18:49:53.351Z,98382.16
2022-10-06T18:52:21.593Z,98373.16
2022-10-06T18:54:48.955Z,98371.09
2022-10-06T18:57:15.775Z,98373.16
2022-10-06T18:59:42.550Z,98379.41
2022-10-06T19:02:11.895Z,98378.69
2022-10-06T19:04:41.592Z,98367.03
2022-10-06T19:07:09.217Z,98366.31
2022-10-06T19:09:35.935Z,98377.38
2022-10-06T19:12:02.604Z,98367.63
2022-10-06T19:14:31.719Z,98376.63
2022-10-06T19:17:03.820Z,98371.72
2022-10-06T19:19:31.228Z,98375.19
2022-10-06T19:21:59.883Z,98377.97
2022-10-06T19:24:32.948Z,98376.50
2022-10-06T19:26:59.890Z,98368.22
2022-10-06T19:29:27.000Z,98375.06
2022-10-06T19:31:56.167Z,98374.34
2022-10-06T19:34:24.758Z,98379.88
2022-10-06T19:36:55.032Z,98377.69
2022-10-06T19:39:26.743Z,98378.44
2022-10-06T19:42:12.275Z,98380.47
2022-10-06T19:44:43.020Z,98374.81
2022-10-06T19:47:13.191Z,98380.94
2022-10-06T19:49:40.236Z,98374.81
2022-10-06T19:52:08.241Z,98373.97
2022-10-06T19:54:35.557Z,98372.50
2022-10-06T19:57:05.536Z,98378.63
2022-10-06T19:59:32.826Z,98371.78
2022-10-06T20:01:59.579Z,98373.00
2022-10-06T20:04:26.442Z,98375.59
2022-10-06T20:06:53.425Z,98375.50
2022-10-06T20:09:22.566Z,98372.59
2022-10-06T20:11:50.704Z,98372.47
2022-10-06T20:14:21.011Z,98365.38
2022-10-06T20:16:53.131Z,98368.00
2022-10-06T20:19:20.723Z,98362.34
2022-10-06T20:21:47.889Z,98362.78
2022-10-06T20:24:22.491Z,98356.44
2022-10-06T20:26:50.608Z,98364.56
2022-10-06T20:29:20.937Z,98365.78
2022-10-06T20:31:50.570Z,98358.06
2022-10-06T20:34:19.592Z,98348.22
2022-10-06T20:36:49.551Z,98343.84
2022-10-06T20:39:39.179Z,98351.31
2022-10-06T20:42:09.463Z,98357.28
2022-10-06T20:44:40.768Z,98353.53
2022-10-06T20:47:08.837Z,98348.47
2022-10-06T20:49:35.571Z,98346.88
2022-10-06T20:52:03.363Z,98344.56
2022-10-06T20:54:35.991Z,98342.28
2022-10-06T20:57:04.709Z,98342.72
2022-10-06T20:59:33.168Z,98343.88
2022-10-06T21:02:00.119Z,98343.75
2022-10-06T21:04:27.651Z,98339.44
2022-10-06T21:06:54.599Z,98339.16
2022-10-06T21:09:21.586Z,98343.09
2022-10-06T21:11:49.422Z,98338.75
2022-10-06T21:14:16.458Z,98338.59
2022-10-06T21:16:45.205Z,98334.84
2022-10-06T21:19:14.675Z,98333.28
2022-10-06T21:21:42.809Z,98326.88
2022-10-06T21:24:09.866Z,98332.28
2022-10-06T21:26:38.651Z,98327.22
2022-10-06T21:29:05.394Z,98323.59
2022-10-06T21:31:33.168Z,98322.00
2022-10-06T21:34:01.387Z,98321.00
2022-10-06T21:36:31.630Z,98325.69
2022-10-06T21:38:59.943Z,98322.03
2022-10-06T21:41:32.058Z,98305.97
2022-10-06T21:44:08.870Z,98318.88
2022-10-06T21:46:41.582Z,98318.59
2022-10-06T21:49:13.511Z,98328.06
2022-10-06T21:51:41.350Z,98316.91
2022-10-06T21:54:10.363Z,98316.03
2022-10-06T21:56:37.488Z,98312.44
2022-10-06T21:59:04.795Z,98317.06
2022-10-06T22:01:36.581Z,98318.97
2022-10-06T22:04:03.814Z,98309.81
2022-10-06T22:06:32.095Z,98301.41
2022-10-06T22:08:59.597Z,98303.31
2022-10-06T22:11:31.955Z,98299.69
2022-10-06T22:14:01.957Z,98298.09
2022-10-06T22:16:30.785Z,98293.16
2022-10-06T22:18:57.594Z,98295.81
2022-10-06T22:21:29.130Z,98300.31
2022-10-06T22:24:06.617Z,98293.91
2022-10-06T22:26:35.200Z,98284.78
2022-10-06T22:29:01.786Z,98288.09
2022-10-06T22:31:28.775Z,98282.44
2022-10-06T22:34:00.171Z,98286.38
2022-10-06T22:36:28.082Z,98280.00
2022-10-06T22:38:55.749Z,98288.13
2022-10-06T22:41:23.026Z,98277.69
2022-10-06T22:43:52.643Z,98281.63
2022-10-06T22:46:19.473Z,98278.88
2022-10-06T22:48:46.139Z,98271.03
2022-10-06T22:51:13.229Z,98270.91
2022-10-06T22:53:39.871Z,98263.78
2022-10-06T22:56:06.660Z,98256.84
2022-10-06T22:58:33.709Z,98263.50
2022-10-06T23:01:15.731Z,98258.56
2022-10-06T23:03:42.630Z,98259.75
2022-10-06T23:06:12.290Z,98256.13
2022-10-06T23:08:39.346Z,98252.66
2022-10-06T23:11:06.811Z,98251.63
2022-10-06T23:13:33.891Z,98249.47
2022-10-06T23:16:11.356Z,98251.34
2022-10-06T23:18:39.897Z,98254.69
2022-10-06T23:21:11.702Z,98253.84
2022-10-06T23:23:38.417Z,98249.63
2022-10-06T23:26:12.541Z,98249.47
2022-10-06T23:28:39.545Z,98241.81
2022-10-06T23:31:08.451Z,98241.66
2022-10-06T23:33:35.974Z,98240.06
2022-10-06T23:36:08.114Z,98241.22
2022-10-06T23:38:35.600Z,98231.53
2022-10-06T23:41:02.846Z,98234.88
2022-10-06T23:43:29.564Z,98231.94
2022-10-06T23:45:56.409Z,98226.31
2022-10-06T23:48:23.640Z,98226.91
2022-10-06T23:51:09.724Z,98226.03
2022-10-06T23:53:36.685Z,98216.31
2022-10-06T23:56:04.590Z,98220.22
2022-10-06T23:58:31.555Z,98218.78
